North Windham, CT (06256)

5:30 AM EST on November 26, 2014 (GMT -0500)
"Fox Den" Rt6 Chaplin | Change Station
CLOSE
Current Station
Personal Weather Station
Location: Chaplin, CT
Elevation: 584 ft
Nearby Weather Stations
Active Advisory: Winter Storm Warning

Elev 584 ft 41.77 °N, 72.11 °W | Updated 3 minutes ago

Mostly Cloudy
Mostly Cloudy
40.5 °F
Feels Like 38 °F
N
4.2
Wind Variable Wind from WNW

Today
High -- | Low -- °F
--% Chance of Precip.
Yesterday
High -- | Low -- °F
Precip. -- in
6:50 AM 4:20 PM
Waxing Crescent, 18% visible
Pressure 30.17 in
Visibility 10.0 miles
Clouds Mostly Cloudy 12000 ft
Windchill 38 °F
Dew Point 31 °F
Humidity 68%
Rainfall 0.00 in
Snow Depth Not available.
UV 0 out of 12
Pollen .10 out of 12
Air Quality Not available.
Flu Activity Not available.
METAR KIJD 260952Z AUTO 35006KT 10SM BKN120 06/M01 A3017 RMK AO2 SLP217 T00611011

More Conditions Fewer Conditions

Pressure 30.17 in
Visibility 10.0 miles
Clouds Mostly Cloudy 12000 ft
Windchill 38 °F
Dew Point 31 °F
Humidity 68%
Rainfall 0.00 in
Snow Depth Not available.
UV 0 out of 12
Pollen .10 out of 12
Air Quality Not available.
Flu Activity Not available.
METAR KIJD 260952Z AUTO 35006KT 10SM BKN120 06/M01 A3017 RMK AO2 SLP217 T00611011

More Conditions Fewer Conditions

10-Day Weather Forecast

Almanac

Astronomy

Nov. 26, 2014 Rise Set
Actual Time
Civil Twilight
Nautical Twilight
Astronomical Twilight
Moon
Length of Visible Light
Length of Day
Tomorrow will be .
, % of the Moon is Illuminated

Today's Extremes

State Highs State Lows

Community

WunderPhotos

Upload Photos

1,773,708 photos uploaded!

WunderBlogs® & News

Nearby

Air Quality

  Air Quality AQ Index Pollutant
Not available.

Snow Depth

Station Depth Elevation

Earthquake Activity

City Distance Mag. Time & Date
Minimum magnitude displayed is 2.5.

Coastal Water Temperatures

Place Temperature

Nearby Weather Stations